Time;durP1;ratioP1;P1;durP2;ratioP2;P2;SDS_P1;SDS_P2;PMS_P1;PMS_P2;Temp;Humidity;BMP_temperature;BMP_pressure;BME280_temperature;BME280_humidity;BME280_pressure;Samples;Min_cycle;Max_cycle;Signal;HPM_P1;HPM_P2
2022/08/06 00:02:41;;;;;;;7.78;5.25;;;19.80;99.90;;;;;;5092862;28;20106;-49
2022/08/06 00:05:10;;;;;;;6.43;4.88;;;19.70;99.90;;;;;;5105611;28;20093;-49
2022/08/06 00:07:55;;;;;;;7.03;5.38;;;19.70;99.90;;;;;;5089172;28;20045;-49
2022/08/06 00:10:22;;;;;;;10.00;5.10;;;19.70;99.90;;;;;;5102516;28;20119;-49
2022/08/06 00:12:56;;;;;;;6.85;5.50;;;19.70;99.90;;;;;;5100622;28;20119;-51
2022/08/06 00:15:24;;;;;;;7.13;5.38;;;19.70;99.90;;;;;;5111509;28;20043;-49
2022/08/06 00:18:11;;;;;;;6.13;5.03;;;19.70;99.90;;;;;;5108646;28;20050;-52
2022/08/06 00:20:38;;;;;;;8.45;5.53;;;19.70;99.90;;;;;;5102256;28;20039;-50
2022/08/06 00:23:08;;;;;;;9.25;5.35;;;19.70;99.90;;;;;;5111407;28;20071;-51
2022/08/06 00:25:43;;;;;;;10.02;4.60;;;19.70;99.90;;;;;;5108575;28;20069;-49
2022/08/06 00:28:23;;;;;;;7.07;4.55;;;19.70;99.90;;;;;;5092349;28;20066;-49
2022/08/06 00:30:57;;;;;;;6.97;4.82;;;19.60;99.90;;;;;;5090792;28;20044;-49
2022/08/06 00:33:26;;;;;;;6.10;5.10;;;19.60;99.90;;;;;;5090256;28;20131;-50
2022/08/06 00:36:13;;;;;;;8.55;6.13;;;19.60;99.90;;;;;;5091240;28;20036;-49
2022/08/06 00:38:42;;;;;;;5.75;5.05;;;19.60;99.90;;;;;;5091044;28;20040;-49
2022/08/06 00:41:09;;;;;;;5.13;4.57;;;19.60;99.90;;;;;;5091040;28;20044;-50
2022/08/06 00:43:42;;;;;;;6.95;5.20;;;19.60;99.90;;;;;;5089892;28;20135;-49
2022/08/06 00:46:11;;;;;;;6.00;4.80;;;19.60;99.90;;;;;;5080679;28;20405;-49
2022/08/06 00:48:42;;;;;;;9.32;4.85;;;19.60;99.90;;;;;;5114806;28;20549;-50
2022/08/06 00:51:21;;;;;;;6.97;5.50;;;19.60;99.90;;;;;;5114150;28;20035;-50
2022/08/06 00:53:49;;;;;;;6.10;5.50;;;19.70;99.90;;;;;;5105052;28;20143;-51
2022/08/06 00:56:24;;;;;;;7.05;5.35;;;19.60;99.90;;;;;;5106554;28;20059;-52
2022/08/06 00:58:54;;;;;;;8.60;5.88;;;19.60;99.90;;;;;;5115059;28;20038;-51
2022/08/06 01:01:30;;;;;;;9.52;6.22;;;19.60;99.90;;;;;;5110621;28;20045;-49
2022/08/06 01:04:15;;;;;;;8.27;6.50;;;19.60;99.90;;;;;;5128763;22;20058;-49
2022/08/06 01:06:41;;;;;;;10.80;6.00;;;19.60;99.90;;;;;;5134748;27;20054;-51
2022/08/06 01:09:24;;;;;;;8.57;5.97;;;19.60;99.90;;;;;;5138460;27;20055;-50
2022/08/06 01:11:51;;;;;;;8.45;5.68;;;19.60;99.90;;;;;;5146853;27;20046;-51
2022/08/06 01:14:26;;;;;;;6.10;5.32;;;19.60;99.90;;;;;;5143496;27;20046;-50
2022/08/06 01:17:27;;;;;;;7.45;5.78;;;19.60;99.90;;;;;;5122067;27;20066;-50
2022/08/06 01:20:28;;;;;;;7.05;5.75;;;19.60;99.90;;;;;;5125791;27;20491;-50
2022/08/06 01:23:26;;;;;;;8.73;6.13;;;19.50;99.90;;;;;;5104457;27;20108;-50
2022/08/06 01:26:16;;;;;;;10.48;6.82;;;19.50;99.90;;;;;;5125719;27;20040;-50
2022/08/06 01:28:50;;;;;;;8.73;6.78;;;19.50;99.90;;;;;;5126643;27;20035;-50
2022/08/06 01:31:26;;;;;;;11.85;7.00;;;19.50;99.90;;;;;;5134519;27;20047;-51
2022/08/06 01:34:00;;;;;;;7.90;6.25;;;19.40;99.90;;;;;;5134677;27;20130;-51
2022/08/06 01:36:32;;;;;;;7.28;4.82;;;19.40;99.90;;;;;;5124014;27;20028;-50
2022/08/06 01:39:01;;;;;;;5.85;4.35;;;19.30;99.90;;;;;;5126411;27;20046;-50
2022/08/06 01:41:38;;;;;;;4.57;3.25;;;19.30;99.90;;;;;;5134413;27;20427;-49
2022/08/06 01:44:37;;;;;;;4.20;3.00;;;19.20;99.90;;;;;;5134477;27;20057;-50
2022/08/06 01:47:11;;;;;;;5.63;3.58;;;19.20;99.90;;;;;;5114654;27;20054;-50
2022/08/06 01:49:46;;;;;;;4.00;3.28;;;19.20;99.90;;;;;;5130694;27;20096;-52
2022/08/06 01:52:34;;;;;;;4.25;3.03;;;19.20;99.90;;;;;;5134562;27;20262;-49
2022/08/06 01:55:09;;;;;;;11.63;4.60;;;19.20;99.90;;;;;;5122404;27;20040;-51
2022/08/06 01:57:43;;;;;;;3.85;3.33;;;19.20;99.90;;;;;;5130338;27;20311;-50
2022/08/06 02:00:31;;;;;;;5.68;3.35;;;19.20;99.90;;;;;;5134292;27;20047;-51
2022/08/06 02:03:07;;;;;;;3.88;2.83;;;19.20;99.90;;;;;;5117907;27;20111;-50
2022/08/06 02:05:36;;;;;;;4.22;3.30;;;19.20;99.90;;;;;;5125663;27;20031;-53
2022/08/06 02:08:14;;;;;;;6.35;3.13;;;19.20;99.90;;;;;;5134458;27;20054;-49
2022/08/06 02:11:04;;;;;;;4.60;2.85;;;19.20;99.90;;;;;;5123377;27;20043;-50
2022/08/06 02:13:52;;;;;;;6.60;2.90;;;19.20;99.90;;;;;;5125588;27;20540;-51
2022/08/06 02:16:22;;;;;;;3.22;2.88;;;19.20;99.90;;;;;;5134324;27;20076;-50
2022/08/06 02:18:54;;;;;;;6.22;3.08;;;19.20;99.90;;;;;;5131014;27;20031;-51
2022/08/06 02:21:23;;;;;;;3.08;2.78;;;19.20;99.90;;;;;;5114907;27;20496;-50
2022/08/06 02:24:01;;;;;;;2.73;2.33;;;19.20;99.90;;;;;;5132586;27;20512;-49
2022/08/06 02:26:30;;;;;;;4.43;3.45;;;19.30;99.90;;;;;;5134085;27;20641;-51
2022/08/06 02:29:01;;;;;;;3.38;2.88;;;19.20;99.90;;;;;;5111705;27;20083;-51
2022/08/06 02:31:28;;;;;;;4.95;3.40;;;19.30;99.90;;;;;;5121322;27;20446;-50
2022/08/06 02:34:15;;;;;;;6.38;2.80;;;19.20;99.90;;;;;;5093038;28;20063;-49
2022/08/06 02:36:49;;;;;;;4.93;3.28;;;19.20;99.90;;;;;;5092852;28;20043;-49
2022/08/06 02:39:27;;;;;;;4.25;3.05;;;19.10;99.90;;;;;;5114278;27;20479;-50
2022/08/06 02:42:17;;;;;;;3.70;3.22;;;19.10;99.90;;;;;;5112990;28;20048;-51
2022/08/06 02:45:03;;;;;;;;;;;19.10;99.90;;;;;;5113621;28;20047;-50
2022/08/06 02:47:40;;;;;;;7.03;4.28;;;19.10;99.90;;;;;;5116757;27;19934;-52
2022/08/06 02:50:44;;;;;;;5.10;3.58;;;19.00;99.90;;;;;;5092260;28;20126;-49
2022/08/06 02:53:21;;;;;;;9.00;4.60;;;19.00;99.90;;;;;;5092564;28;20377;-51
2022/08/06 02:56:03;;;;;;;4.93;4.40;;;19.00;99.90;;;;;;5110164;27;20066;-50
2022/08/06 02:58:39;;;;;;;5.85;4.43;;;19.00;99.90;;;;;;5127889;27;20074;-53
2022/08/06 03:01:22;;;;;;;6.20;4.40;;;19.10;99.90;;;;;;5133078;27;20043;-50
2022/08/06 03:03:55;;;;;;;5.45;4.35;;;19.10;99.90;;;;;;5120653;27;20138;-50
2022/08/06 03:06:28;;;;;;;7.40;4.13;;;19.10;99.90;;;;;;5126714;27;20043;-49
2022/08/06 03:08:58;;;;;;;6.35;4.07;;;19.10;99.90;;;;;;5133220;27;20036;-49
2022/08/06 03:11:28;;;;;;;5.68;3.83;;;19.20;99.90;;;;;;5125481;27;20580;-49
2022/08/06 03:14:00;;;;;;;6.47;3.72;;;19.20;99.90;;;;;;5122755;27;20040;-49
2022/08/06 03:16:29;;;;;;;6.97;4.13;;;19.30;99.90;;;;;;5133022;27;20046;-50
2022/08/06 03:18:57;;;;;;;5.35;4.57;;;19.30;99.90;;;;;;5133021;27;20047;-51
2022/08/06 03:21:45;;;;;;;5.70;4.38;;;19.20;99.90;;;;;;5126446;27;20090;-50
2022/08/06 03:24:24;;;;;;;6.75;5.00;;;19.30;99.90;;;;;;5119802;27;20049;-51
2022/08/06 03:26:57;;;;;;;5.72;4.53;;;19.30;99.90;;;;;;5132953;27;20100;-49
2022/08/06 03:29:26;;;;;;;5.97;4.20;;;19.30;99.90;;;;;;5126856;27;20078;-49
2022/08/06 03:31:54;;;;;;;7.43;4.40;;;19.30;99.90;;;;;;5119104;27;20065;-52
2022/08/06 03:34:40;;;;;;;5.30;4.55;;;19.30;99.90;;;;;;5132815;27;20035;-50
2022/08/06 03:37:09;;;;;;;5.75;4.90;;;19.20;99.90;;;;;;5132834;27;20043;-51
2022/08/06 03:39:41;;;;;;;6.38;4.15;;;19.20;99.90;;;;;;5103409;27;20044;-50
2022/08/06 03:42:13;;;;;;;5.50;3.67;;;19.20;99.90;;;;;;5091619;28;20139;-50
2022/08/06 03:44:40;;;;;;;7.90;3.47;;;19.20;99.90;;;;;;5091705;28;20048;-50
2022/08/06 03:47:24;;;;;;;4.45;3.85;;;19.20;99.90;;;;;;5095439;28;20046;-50
2022/08/06 03:50:14;;;;;;;6.85;3.97;;;19.10;99.90;;;;;;5103175;28;20067;-52
2022/08/06 03:52:47;;;;;;;5.35;4.22;;;19.10;99.90;;;;;;5112006;28;20039;-49
2022/08/06 03:55:26;;;;;;;7.90;4.10;;;19.10;99.90;;;;;;5110034;28;20056;-53
2022/08/06 03:58:03;;;;;;;6.07;4.15;;;19.10;99.90;;;;;;5119672;28;20047;-49
2022/08/06 04:00:36;;;;;;;6.82;5.30;;;19.00;99.90;;;;;;5114074;28;20524;-51
2022/08/06 04:03:04;;;;;;;5.00;4.18;;;19.10;99.90;;;;;;5114016;28;20051;-50
2022/08/06 04:05:33;;;;;;;6.28;4.70;;;19.00;99.90;;;;;;5106230;28;20028;-52
2022/08/06 04:08:04;;;;;;;8.23;4.35;;;19.00;99.90;;;;;;5110602;28;20035;-52
2022/08/06 04:10:36;;;;;;;7.75;4.28;;;18.90;99.90;;;;;;5107338;28;20040;-51
2022/08/06 04:13:07;;;;;;;7.40;4.30;;;18.90;99.90;;;;;;5097068;28;20032;-52
2022/08/06 04:15:55;;;;;;;4.88;4.20;;;19.00;99.90;;;;;;5121572;28;20043;-51
2022/08/06 04:18:28;;;;;;;6.35;4.55;;;19.00;99.90;;;;;;5134267;27;20118;-49
2022/08/06 04:21:01;;;;;;;7.53;4.85;;;19.00;99.90;;;;;;5121151;27;20508;-50
2022/08/06 04:23:47;;;;;;;6.18;4.05;;;19.20;99.90;;;;;;5120238;27;20077;-52
2022/08/06 04:26:16;;;;;;;;;;;19.20;99.90;;;;;;5128933;27;20035;-51
2022/08/06 04:28:45;;;;;;;7.25;3.83;;;19.20;99.90;;;;;;5136466;27;19926;-50
2022/08/06 04:31:26;;;;;;;10.77;4.35;;;19.20;99.90;;;;;;5133917;27;20053;-51
2022/08/06 04:34:21;;;;;;;7.45;4.60;;;19.30;99.90;;;;;;5116151;27;20036;-50
2022/08/06 04:36:54;;;;;;;5.75;4.50;;;19.30;99.90;;;;;;5115754;28;20040;-51
2022/08/06 04:39:22;;;;;;;5.82;3.90;;;19.30;99.90;;;;;;5115673;28;20118;-50
2022/08/06 04:42:03;;;;;;;5.20;4.10;;;19.40;99.90;;;;;;5125373;27;20035;-51
2022/08/06 04:44:33;;;;;;;6.22;4.60;;;19.40;99.90;;;;;;5135898;27;20035;-50
2022/08/06 04:47:01;;;;;;;7.80;4.43;;;19.30;99.90;;;;;;5135980;27;20047;-52
2022/08/06 04:49:29;;;;;;;6.90;4.95;;;19.30;99.90;;;;;;5126405;27;20046;-49
2022/08/06 04:52:23;;;;;;;6.05;4.88;;;19.30;99.90;;;;;;5094655;28;20072;-54
2022/08/06 04:55:10;;;;;;;6.20;4.25;;;19.30;99.90;;;;;;5094900;28;20036;-51
2022/08/06 04:57:57;;;;;;;8.07;4.95;;;19.30;99.90;;;;;;5098292;27;20040;-52
2022/08/06 05:00:39;;;;;;;4.70;3.67;;;19.30;99.90;;;;;;5126653;27;20042;-52
2022/08/06 05:03:26;;;;;;;4.30;3.75;;;19.30;99.90;;;;;;5135649;27;20799;-53
2022/08/06 05:06:19;;;;;;;5.68;3.47;;;19.20;99.90;;;;;;5126081;27;20039;-50
2022/08/06 05:08:51;;;;;;;5.10;2.53;;;19.20;99.90;;;;;;5126914;27;20046;-50
2022/08/06 05:11:25;;;;;;;6.05;3.28;;;19.20;99.90;;;;;;5122974;27;20495;-50
2022/08/06 05:13:56;;;;;;;4.85;2.88;;;19.20;99.90;;;;;;5105164;28;20040;-50
2022/08/06 05:16:26;;;;;;;4.00;2.70;;;19.20;99.90;;;;;;5116880;27;20040;-51
2022/08/06 05:18:58;;;;;;;6.70;2.67;;;19.20;99.90;;;;;;5133077;27;20043;-50
2022/08/06 05:21:47;;;;;;;3.17;2.78;;;19.30;99.90;;;;;;5134970;27;20104;-51
2022/08/06 05:24:34;;;;;;;4.43;3.15;;;19.30;99.90;;;;;;5123080;27;20043;-51
2022/08/06 05:27:21;;;;;;;3.40;2.58;;;19.30;99.90;;;;;;5121494;27;20571;-50
2022/08/06 05:29:49;;;;;;;6.13;2.78;;;19.30;99.90;;;;;;5134794;27;20411;-50
2022/08/06 05:32:21;;;;;;;3.33;2.33;;;19.30;99.90;;;;;;5126944;27;20110;-52
2022/08/06 05:34:51;;;;;;;2.58;2.22;;;19.20;99.90;;;;;;5126559;27;20031;-54
2022/08/06 05:37:19;;;;;;;4.00;2.40;;;19.20;99.90;;;;;;5135004;27;20115;-52
2022/08/06 05:40:08;;;;;;;3.88;2.20;;;19.20;99.90;;;;;;5128764;27;20035;-50
2022/08/06 05:42:37;;;;;;;2.47;2.20;;;19.20;99.90;;;;;;5109712;28;20105;-49
2022/08/06 05:45:08;;;;;;;5.30;2.50;;;19.20;99.90;;;;;;5098296;27;20051;-51
2022/08/06 05:47:39;;;;;;;3.35;2.45;;;19.30;99.90;;;;;;5121562;27;20040;-49
2022/08/06 05:50:26;;;;;;;2.58;2.13;;;19.30;99.90;;;;;;5110386;27;20119;-51
2022/08/06 05:53:07;;;;;;;3.60;2.30;;;19.30;99.90;;;;;;5121369;27;20035;-52
2022/08/06 05:55:41;;;;;;;2.88;2.03;;;19.30;99.90;;;;;;5134630;27;20308;-52
2022/08/06 05:58:14;;;;;;;3.75;2.10;;;19.30;99.90;;;;;;5134788;27;20415;-51
2022/08/06 06:00:41;;;;;;;3.30;2.38;;;19.30;99.90;;;;;;5118008;27;20109;-54
2022/08/06 06:03:16;;;;;;;3.58;2.30;;;19.30;99.90;;;;;;5117459;27;20096;-52
2022/08/06 06:05:57;;;;;;;2.53;1.90;;;19.30;99.90;;;;;;5118019;27;20049;-54
2022/08/06 06:08:44;;;;;;;3.17;2.20;;;19.40;99.90;;;;;;5131026;27;20051;-50
2022/08/06 06:11:26;;;;;;;3.83;2.28;;;19.50;99.90;;;;;;5121404;27;20523;-50
2022/08/06 06:14:25;;;;;;;8.70;2.70;;;19.50;99.90;;;;;;5119241;27;20047;-53
2022/08/06 06:17:15;;;;;;;6.93;2.13;;;19.60;99.90;;;;;;5134402;27;20075;-52
2022/08/06 06:20:00;;;;;;;2.30;2.08;;;19.50;99.90;;;;;;5118977;27;20518;-53
2022/08/06 06:22:41;;;;;;;3.42;2.40;;;19.60;99.90;;;;;;5113154;28;20031;-50
2022/08/06 06:25:37;;;;;;;2.95;2.03;;;19.70;99.90;;;;;;5101581;28;20044;-49
2022/08/06 06:28:18;;;;;;;5.47;2.58;;;19.70;99.90;;;;;;5112489;27;20043;-51
2022/08/06 06:31:14;;;;;;;2.75;2.17;;;19.70;99.90;;;;;;5122903;27;20485;-52
2022/08/06 06:34:12;;;;;;;5.40;2.42;;;19.70;99.90;;;;;;5103787;27;20089;-50
2022/08/06 06:37:03;;;;;;;2.42;2.17;;;19.80;99.90;;;;;;5109605;27;20044;-51
2022/08/06 06:39:41;;;;;;;4.80;2.70;;;19.80;99.90;;;;;;5116188;27;20058;-52
2022/08/06 06:42:40;;;;;;;6.65;2.72;;;19.80;99.90;;;;;;5108631;27;20491;-52
2022/08/06 06:45:37;;;;;;;6.30;2.50;;;19.70;99.90;;;;;;5115602;27;20042;-51
2022/08/06 06:48:50;;;;;;;3.03;2.67;;;19.70;99.90;;;;;;5100943;28;20082;-51
2022/08/06 06:51:29;;;;;;;4.88;2.85;;;19.60;99.90;;;;;;5099005;28;20097;-52
2022/08/06 06:54:26;;;;;;;4.63;2.60;;;19.70;99.90;;;;;;5112856;28;20040;-52
2022/08/06 06:57:06;;;;;;;4.25;2.72;;;19.70;99.90;;;;;;5109637;27;20051;-53
2022/08/06 06:59:38;;;;;;;3.92;2.83;;;19.60;99.90;;;;;;5124712;27;20126;-52
2022/08/06 07:02:28;;;;;;;3.85;2.70;;;19.70;99.90;;;;;;5097978;28;20071;-53
2022/08/06 07:04:56;;;;;;;2.92;2.25;;;19.80;99.90;;;;;;5131568;22;20055;-51
2022/08/06 07:07:26;;;;;;;2.95;2.65;;;19.80;99.90;;;;;;5140584;27;20050;-51
2022/08/06 07:09:55;;;;;;;3.13;2.80;;;19.80;99.90;;;;;;5132645;27;20044;-51
2022/08/06 07:12:30;;;;;;;4.15;2.80;;;19.80;99.90;;;;;;5136079;27;20061;-53
2022/08/06 07:15:01;;;;;;;3.63;2.58;;;19.80;99.90;;;;;;5137273;27;20475;-50
2022/08/06 07:17:31;;;;;;;5.13;2.88;;;20.00;99.90;;;;;;5139043;27;20035;-53
2022/08/06 07:20:19;;;;;;;4.80;2.65;;;20.10;99.90;;;;;;5139397;27;20235;-52
2022/08/06 07:22:53;;;;;;;3.70;2.53;;;20.20;99.90;;;;;;5141874;27;20046;-51
2022/08/06 07:25:43;;;;;;;3.10;2.53;;;20.30;99.90;;;;;;5141791;27;20103;-51
2022/08/06 07:28:25;;;;;;;4.47;2.42;;;20.40;99.90;;;;;;5141125;27;20062;-51
2022/08/06 07:30:58;;;;;;;4.10;2.78;;;20.40;99.90;;;;;;5137013;27;20047;-48
2022/08/06 07:33:32;;;;;;;2.78;2.00;;;20.50;99.90;;;;;;5140573;27;20126;-54
2022/08/06 07:36:22;;;;;;;5.25;2.28;;;20.40;99.90;;;;;;5140838;27;20031;-48
2022/08/06 07:38:59;;;;;;;3.38;2.78;;;20.40;99.90;;;;;;5140738;27;20041;-53
2022/08/06 07:41:27;;;;;;;3.30;2.70;;;20.50;99.90;;;;;;5131098;27;20100;-50
2022/08/06 07:44:14;;;;;;;3.83;3.00;;;20.50;99.90;;;;;;5129619;27;20495;-51
2022/08/06 07:46:51;;;;;;;3.10;2.42;;;20.40;99.90;;;;;;5132551;27;20035;-50
2022/08/06 07:49:22;;;;;;;3.70;2.97;;;20.50;99.90;;;;;;5126694;27;20035;-51
2022/08/06 07:51:58;;;;;;;3.97;2.90;;;20.40;99.90;;;;;;5130275;27;20074;-51
2022/08/06 07:54:29;;;;;;;3.95;3.08;;;20.40;99.90;;;;;;5111412;28;20141;-52
2022/08/06 07:57:00;;;;;;;5.07;2.58;;;20.30;99.90;;;;;;5114392;28;20432;-53
2022/08/06 07:59:30;;;;;;;3.80;2.78;;;20.30;99.90;;;;;;5134634;27;20072;-50
2022/08/06 08:01:59;;;;;;;4.97;3.00;;;20.40;99.90;;;;;;5111410;28;20039;-51
2022/08/06 08:07:21;;;;;;;4.93;3.35;;;20.50;99.90;;;;;;5130116;27;20089;-53
2022/08/06 08:10:09;;;;;;;3.70;2.80;;;20.80;99.90;;;;;;5111435;27;20043;-50
2022/08/06 08:12:37;;;;;;;4.30;3.25;;;20.80;99.90;;;;;;5123187;28;20036;-53
2022/08/06 08:15:06;;;;;;;3.83;2.70;;;20.90;99.90;;;;;;5134180;27;20043;-51
2022/08/06 08:17:49;;;;;;;4.15;2.80;;;20.90;99.90;;;;;;5136271;27;20442;-51
2022/08/06 08:20:27;;;;;;;5.15;3.38;;;20.80;99.90;;;;;;5138388;27;20039;-52
2022/08/06 08:23:04;;;;;;;4.22;3.35;;;20.80;99.90;;;;;;5138356;27;20407;-50
2022/08/06 08:25:33;;;;;;;4.95;3.35;;;20.70;99.90;;;;;;5139787;27;20039;-53
2022/08/06 08:28:10;;;;;;;6.65;2.95;;;20.70;99.90;;;;;;5138734;27;20063;-50
2022/08/06 08:30:40;;;;;;;5.18;2.88;;;20.60;99.90;;;;;;5131414;27;20039;-50
2022/08/06 08:33:07;;;;;;;;;;;20.60;99.90;;;;;;5128884;27;20059;-49
2022/08/06 08:35:44;;;;;;;5.15;3.17;;;20.50;99.90;;;;;;5111345;28;20026;-51
2022/08/06 08:38:27;;;;;;;5.65;3.40;;;20.40;99.90;;;;;;5134598;27;20119;-50
2022/08/06 08:40:56;;;;;;;5.07;3.45;;;20.40;99.90;;;;;;5137697;27;20521;-49
2022/08/06 08:43:43;;;;;;;4.68;3.22;;;20.30;99.90;;;;;;5142669;27;20039;-50
2022/08/06 08:46:37;;;;;;;6.22;4.20;;;20.30;99.90;;;;;;5135913;27;20492;-51
2022/08/06 08:49:25;;;;;;;5.88;4.35;;;20.20;99.90;;;;;;5123400;27;20039;-51
2022/08/06 08:51:53;;;;;;;7.93;4.55;;;20.10;99.90;;;;;;5139282;27;20522;-52
2022/08/06 08:54:22;;;;;;;8.20;4.47;;;20.00;99.90;;;;;;5136617;27;20043;-51
2022/08/06 08:56:52;;;;;;;6.70;4.53;;;20.00;99.90;;;;;;5131589;28;20051;-49
2022/08/06 08:59:41;;;;;;;7.93;4.38;;;19.90;99.90;;;;;;5131670;28;20043;-52
2022/08/06 09:02:28;;;;;;;7.57;4.68;;;19.90;99.90;;;;;;5123521;28;20120;-50
2022/08/06 09:04:57;;;;;;;7.30;4.20;;;20.00;99.90;;;;;;5132272;27;20093;-49
2022/08/06 09:07:26;;;;;;;8.85;4.45;;;19.80;99.90;;;;;;5114702;28;20043;-49
2022/08/06 09:10:11;;;;;;;6.88;4.30;;;19.80;99.90;;;;;;5117343;27;20039;-50
2022/08/06 09:12:42;;;;;;;11.43;5.30;;;19.70;99.90;;;;;;5140909;27;20514;-51
2022/08/06 09:15:16;;;;;;;10.35;5.80;;;19.70;99.90;;;;;;5123277;27;20047;-52
2022/08/06 09:17:46;;;;;;;11.70;5.88;;;19.60;99.90;;;;;;5124917;27;20121;-51
2022/08/06 09:20:35;;;;;;;10.57;5.28;;;19.60;99.90;;;;;;5127993;27;20522;-52
2022/08/06 09:23:02;;;;;;;9.27;5.50;;;19.50;99.90;;;;;;5152861;27;20489;-53
2022/08/06 09:25:49;;;;;;;8.88;5.75;;;19.40;99.90;;;;;;5136811;27;20039;-51
2022/08/06 09:28:34;;;;;;;7.93;5.55;;;19.40;99.90;;;;;;5114638;28;20058;-53
2022/08/06 09:31:08;;;;;;;10.63;6.22;;;19.30;99.90;;;;;;5132439;27;20080;-50
2022/08/06 09:33:58;;;;;;;14.40;7.47;;;19.30;99.90;;;;;;5139852;27;20406;-50
2022/08/06 09:36:46;;;;;;;11.40;6.50;;;19.30;99.90;;;;;;5114646;28;20438;-50
2022/08/06 09:39:15;;;;;;;9.73;6.38;;;19.30;99.90;;;;;;5132254;27;20039;-50
2022/08/06 09:41:52;;;;;;;10.35;6.28;;;19.50;99.90;;;;;;5137785;27;20039;-51
2022/08/06 09:44:19;;;;;;;10.15;6.57;;;19.60;99.90;;;;;;5145299;27;20043;-51
2022/08/06 09:47:07;;;;;;;9.10;4.68;;;19.90;99.90;;;;;;5145668;27;20042;-53
2022/08/06 09:49:47;;;;;;;3.45;2.80;;;20.10;99.90;;;;;;5142002;27;20078;-51
2022/08/06 09:52:26;;;;;;;4.18;3.20;;;20.20;99.90;;;;;;5142472;27;20064;-50
2022/08/06 09:54:53;;;;;;;;;;;20.00;99.90;;;;;;5143120;27;20122;-53
2022/08/06 09:57:23;;;;;;;4.45;3.20;;;19.90;99.90;;;;;;5124883;27;19998;-50
2022/08/06 10:00:03;;;;;;;6.18;4.00;;;19.60;99.90;;;;;;5139750;27;20050;-53
2022/08/06 10:02:40;;;;;;;5.80;3.90;;;19.30;99.90;;;;;;5114061;28;20043;-50
2022/08/06 10:05:13;;;;;;;5.72;4.47;;;19.20;99.90;;;;;;5113897;28;20043;-50
2022/08/06 10:08:00;;;;;;;7.25;4.53;;;19.10;99.90;;;;;;5122954;27;20484;-52
2022/08/06 10:10:48;;;;;;;5.78;4.68;;;19.10;99.90;;;;;;5125261;27;20043;-52
2022/08/06 10:13:20;;;;;;;;;;;19.00;99.90;;;;;;5114085;28;20122;-50
2022/08/06 10:15:49;;;;;;;4.25;2.80;;;18.90;99.90;;;;;;5122637;27;19919;-52
2022/08/06 10:18:33;;;;;;;3.28;2.65;;;18.90;99.90;;;;;;5124896;27;20063;-49
2022/08/06 10:21:25;;;;;;;3.88;2.90;;;18.90;99.90;;;;;;5113305;28;20050;-52
2022/08/06 10:23:58;;;;;;;3.85;3.03;;;18.90;99.90;;;;;;5114470;27;20043;-51
2022/08/06 10:26:31;;;;;;;5.93;4.30;;;19.00;99.90;;;;;;5136780;27;20046;-50
2022/08/06 10:29:07;;;;;;;5.30;4.80;;;19.10;99.90;;;;;;5113547;28;20044;-50
2022/08/06 10:31:36;;;;;;;5.85;5.10;;;19.10;99.90;;;;;;5112933;28;20039;-51
2022/08/06 10:34:10;;;;;;;6.35;5.18;;;19.10;99.90;;;;;;5130753;27;20406;-50
2022/08/06 10:36:49;;;;;;;5.22;4.72;;;19.20;99.90;;;;;;5143578;27;20046;-52
2022/08/06 10:39:21;;;;;;;6.85;4.70;;;19.30;99.90;;;;;;5127326;27;20039;-52
2022/08/06 10:42:08;;;;;;;6.38;4.28;;;19.50;99.90;;;;;;5139421;27;20448;-51
2022/08/06 10:44:50;;;;;;;4.38;3.72;;;19.50;99.90;;;;;;5140166;27;20038;-51
2022/08/06 10:47:21;;;;;;;9.13;4.30;;;19.40;99.90;;;;;;5142490;27;20047;-50
2022/08/06 10:50:09;;;;;;;;;;;19.60;99.90;;;;;;5140709;27;20042;-52
2022/08/06 10:52:57;;;;;;;4.68;3.70;;;19.50;99.90;;;;;;5142255;27;20270;-51
2022/08/06 10:55:26;;;;;;;5.47;3.97;;;19.40;99.90;;;;;;5140243;27;20074;-51
2022/08/06 10:58:10;;;;;;;5.90;4.63;;;19.20;99.90;;;;;;5141062;27;20035;-50
2022/08/06 11:00:40;;;;;;;6.22;4.90;;;18.90;99.90;;;;;;5139656;27;20059;-51
2022/08/06 11:03:45;;;;;;;5.93;5.13;;;18.70;99.90;;;;;;5138678;27;20467;-50
2022/08/06 11:06:27;;;;;;;6.55;4.35;;;18.50;99.90;;;;;;5131236;27;20039;-50
2022/08/06 11:09:04;;;;;;;5.25;4.75;;;18.40;99.90;;;;;;5138108;27;20122;-51
2022/08/06 11:11:51;;;;;;;6.88;4.60;;;18.30;99.90;;;;;;5111102;28;20040;-52
2022/08/06 11:14:35;;;;;;;4.60;4.10;;;18.40;99.90;;;;;;5112366;27;20039;-50
2022/08/06 11:17:05;;;;;;;6.25;4.47;;;18.30;99.90;;;;;;5137828;27;20487;-50
2022/08/06 11:19:39;;;;;;;4.30;3.90;;;18.30;99.90;;;;;;5112593;28;20048;-52
2022/08/06 11:22:38;;;;;;;4.47;4.05;;;18.40;99.90;;;;;;5112585;28;20139;-51
2022/08/06 11:25:36;;;;;;;5.15;4.30;;;18.40;99.90;;;;;;5130720;27;20035;-50
2022/08/06 11:28:07;;;;;;;4.95;4.45;;;18.40;99.90;;;;;;5113128;27;20052;-53
2022/08/06 11:30:43;;;;;;;4.95;3.97;;;18.30;99.90;;;;;;5111907;28;20074;-50
2022/08/06 11:33:18;;;;;;;5.18;4.10;;;18.20;99.90;;;;;;5128921;27;20083;-52
2022/08/06 11:35:50;;;;;;;5.93;4.18;;;18.10;99.90;;;;;;5144595;27;20138;-53
2022/08/06 11:38:42;;;;;;;4.88;3.83;;;18.10;99.90;;;;;;5140078;27;20406;-50
2022/08/06 11:41:26;;;;;;;3.45;3.15;;;17.90;99.90;;;;;;5134483;27;20039;-52
2022/08/06 11:44:17;;;;;;;5.22;3.17;;;17.80;99.90;;;;;;5112037;28;20453;-51
2022/08/06 11:46:48;;;;;;;3.10;2.60;;;17.60;99.90;;;;;;5117230;27;20123;-52
2022/08/06 11:49:20;;;;;;;2.92;2.63;;;17.40;99.90;;;;;;5112563;28;20816;-50
2022/08/06 11:51:59;;;;;;;3.47;2.33;;;17.30;99.90;;;;;;5136727;27;20046;-49
2022/08/06 11:54:46;;;;;;;2.38;2.17;;;17.30;99.90;;;;;;5134648;27;20035;-51
2022/08/06 11:57:13;;;;;;;3.22;2.47;;;17.30;99.90;;;;;;5143395;27;20051;-53
2022/08/06 12:00:02;;;;;;;3.22;2.22;;;17.20;99.90;;;;;;5133624;27;20064;-49
2022/08/06 12:02:45;;;;;;;3.33;2.22;;;17.30;99.90;;;;;;5141020;27;20061;-51
2022/08/06 12:05:15;;;;;;;2.13;1.90;;;17.30;99.90;;;;;;5141130;27;20498;-50
2022/08/06 12:07:49;;;;;;;2.10;1.88;;;17.30;99.90;;;;;;5140334;27;20039;-49
2022/08/06 12:10:18;;;;;;;4.78;2.00;;;17.20;99.90;;;;;;5137587;27;20110;-51
2022/08/06 12:12:55;;;;;;;2.80;1.90;;;17.30;99.90;;;;;;5144843;27;20035;-53
2022/08/06 12:15:26;;;;;;;1.52;1.42;;;17.40;99.90;;;;;;5146487;27;20510;-50
2022/08/06 12:18:13;;;;;;;3.58;2.17;;;17.60;99.90;;;;;;5130153;27;20050;-49
2022/08/06 12:20:56;;;;;;;2.75;1.63;;;17.70;99.90;;;;;;5129848;27;20043;-49
2022/08/06 12:23:25;;;;;;;4.32;1.50;;;17.90;99.90;;;;;;5133534;27;20034;-50
2022/08/06 12:26:13;;;;;;;2.55;1.40;;;18.00;99.90;;;;;;5136307;27;20061;-50
2022/08/06 12:28:41;;;;;;;3.67;1.55;;;18.10;99.90;;;;;;5141240;27;20523;-50
2022/08/06 12:31:10;;;;;;;2.72;1.67;;;18.00;99.90;;;;;;5136796;27;20090;-49
2022/08/06 12:33:57;;;;;;;1.45;1.25;;;17.80;99.90;;;;;;5122552;28;20043;-50
2022/08/06 12:36:29;;;;;;;;;;;17.60;99.90;;;;;;5126106;28;20039;-52
2022/08/06 12:39:03;;;;;;;3.47;1.85;;;17.40;99.90;;;;;;5133158;27;19962;-51
2022/08/06 12:41:35;;;;;;;2.00;1.80;;;17.30;99.90;;;;;;5132618;27;20067;-49
2022/08/06 12:44:14;;;;;;;2.58;2.10;;;17.20;99.90;;;;;;5123407;27;20039;-50
2022/08/06 12:47:11;;;;;;;2.42;2.13;;;17.10;99.90;;;;;;5133949;27;20034;-49
2022/08/06 12:49:39;;;;;;;5.35;2.38;;;17.10;99.90;;;;;;5127951;27;20043;-50
2022/08/06 12:52:17;;;;;;;3.83;2.85;;;17.20;99.90;;;;;;5126257;27;20123;-50
2022/08/06 12:54:45;;;;;;;3.15;2.40;;;17.20;99.90;;;;;;5129298;27;20464;-50
2022/08/06 12:57:30;;;;;;;3.38;2.67;;;17.20;99.90;;;;;;5133833;27;20041;-50
2022/08/06 13:00:17;;;;;;;2.22;2.03;;;17.30;99.90;;;;;;5129929;27;20500;-52
2022/08/06 13:02:56;;;;;;;3.10;2.22;;;17.30;99.90;;;;;;5111536;27;20031;-51
2022/08/06 13:05:27;;;;;;;2.97;2.17;;;17.30;99.90;;;;;;5133498;27;20031;-50
2022/08/06 13:08:02;;;;;;;2.63;2.15;;;17.40;99.90;;;;;;5116751;27;20050;-52
2022/08/06 13:10:29;;;;;;;3.45;3.00;;;17.50;99.90;;;;;;5127004;27;20461;-53
2022/08/06 13:13:09;;;;;;;3.10;2.63;;;17.60;99.90;;;;;;5132034;27;20066;-49
2022/08/06 13:15:59;;;;;;;3.00;2.70;;;17.60;99.90;;;;;;5131961;27;20039;-51
2022/08/06 13:18:26;;;;;;;3.03;2.22;;;17.50;99.90;;;;;;5133105;27;20031;-55
2022/08/06 13:21:19;;;;;;;2.63;2.42;;;17.40;99.90;;;;;;5130166;27;20043;-50
2022/08/06 13:23:48;;;;;;;4.10;2.60;;;17.30;99.90;;;;;;5113733;27;20054;-50
2022/08/06 13:26:18;;;;;;;3.08;2.78;;;17.30;99.90;;;;;;5116779;27;20043;-55
2022/08/06 13:29:11;;;;;;;2.60;2.40;;;17.30;99.90;;;;;;5111817;27;20561;-50
2022/08/06 13:31:59;;;;;;;3.33;2.40;;;17.30;99.90;;;;;;5127593;27;20499;-51
2022/08/06 13:34:26;;;;;;;1.80;1.70;;;17.30;99.90;;;;;;5121725;22;20127;-49
2022/08/06 13:37:06;;;;;;;1.98;1.80;;;17.30;99.90;;;;;;5066670;28;20048;-53
2022/08/06 13:39:51;;;;;;;1.80;1.63;;;17.20;99.90;;;;;;5073001;28;20044;-50
2022/08/06 13:42:18;;;;;;;1.70;1.60;;;17.30;99.90;;;;;;5068780;28;20044;-49
2022/08/06 13:44:54;;;;;;;3.22;1.92;;;17.30;99.90;;;;;;5067207;28;20397;-52
2022/08/06 13:47:29;;;;;;;3.22;1.48;;;17.30;99.90;;;;;;5068232;28;20033;-50